West Aliquippa, Pennsylvania
Current Conditions -  °F | °C
As of 2:51 PM on Wednesday 28 Jan 2015 (Local Time) from KPIT Reporting Station
Few Clouds Few Clouds  
Wind Chill: 24°   Ceiling: Unl
Heat Index: 24°   Visibility: 10mi
Dew Point:   Wind: 3mph
Humidity: 51%   Direction: 210°SSW
Pressure: 30.29"   Gusts: NA
Location:  40.5921°N, 80.3191°W
Report Text: KPIT 281951Z 21003KT 10SM FEW250 M04/M13 A3029 RMK AO2 SLP286 T10441133
Loading
Personal Weather Stations






























Interactive Weather Map New forecast layout! Learn more

10-Day Weather Forecast

Advertisements
Track Severe Weather on mobile